sensor_id;sensor_type;location;lat;lon;timestamp;temperature;humidity
20487;DHT22;10402;49.012;8.370;2022-08-03T00:01:05;24.60;53.60
20487;DHT22;10402;49.012;8.370;2022-08-03T00:03:31;24.50;53.00
20487;DHT22;10402;49.012;8.370;2022-08-03T00:05:57;24.50;53.20
20487;DHT22;10402;49.012;8.370;2022-08-03T00:08:23;24.40;53.20
20487;DHT22;10402;49.012;8.370;2022-08-03T00:10:48;24.40;53.30
20487;DHT22;10402;49.012;8.370;2022-08-03T00:13:14;24.40;53.40
20487;DHT22;10402;49.012;8.370;2022-08-03T00:15:41;24.30;53.40
20487;DHT22;10402;49.012;8.370;2022-08-03T00:18:08;24.30;53.40
20487;DHT22;10402;49.012;8.370;2022-08-03T00:20:34;24.30;53.50
20487;DHT22;10402;49.012;8.370;2022-08-03T00:22:59;24.30;53.60
20487;DHT22;10402;49.012;8.370;2022-08-03T00:25:25;24.30;53.70
20487;DHT22;10402;49.012;8.370;2022-08-03T00:27:51;24.30;53.70
20487;DHT22;10402;49.012;8.370;2022-08-03T00:30:16;24.30;53.70
20487;DHT22;10402;49.012;8.370;2022-08-03T00:32:42;24.20;53.70
20487;DHT22;10402;49.012;8.370;2022-08-03T00:35:08;24.20;53.80
20487;DHT22;10402;49.012;8.370;2022-08-03T00:37:34;24.20;53.80
20487;DHT22;10402;49.012;8.370;2022-08-03T00:39:59;24.10;53.80
20487;DHT22;10402;49.012;8.370;2022-08-03T00:42:25;24.10;53.90
20487;DHT22;10402;49.012;8.370;2022-08-03T00:44:50;24.10;54.10
20487;DHT22;10402;49.012;8.370;2022-08-03T00:47:16;24.00;54.10
20487;DHT22;10402;49.012;8.370;2022-08-03T00:49:42;24.00;54.10
20487;DHT22;10402;49.012;8.370;2022-08-03T00:52:08;24.00;54.10
20487;DHT22;10402;49.012;8.370;2022-08-03T00:54:38;23.90;54.00
20487;DHT22;10402;49.012;8.370;2022-08-03T00:57:04;23.90;54.20
20487;DHT22;10402;49.012;8.370;2022-08-03T00:59:30;23.80;54.30
20487;DHT22;10402;49.012;8.370;2022-08-03T01:01:56;23.80;54.30
20487;DHT22;10402;49.012;8.370;2022-08-03T01:04:21;23.80;54.40
20487;DHT22;10402;49.012;8.370;2022-08-03T01:07:05;23.70;54.50
20487;DHT22;10402;49.012;8.370;2022-08-03T01:12:21;23.70;54.60
20487;DHT22;10402;49.012;8.370;2022-08-03T01:15:06;23.60;54.70
20487;DHT22;10402;49.012;8.370;2022-08-03T01:17:48;23.60;54.70
20487;DHT22;10402;49.012;8.370;2022-08-03T01:20:16;23.50;54.80
20487;DHT22;10402;49.012;8.370;2022-08-03T01:28:47;23.40;55.00
20487;DHT22;10402;49.012;8.370;2022-08-03T01:31:25;23.30;55.10
20487;DHT22;10402;49.012;8.370;2022-08-03T01:33:59;23.30;55.20
20487;DHT22;10402;49.012;8.370;2022-08-03T01:36:32;23.30;55.20
20487;DHT22;10402;49.012;8.370;2022-08-03T01:39:01;23.30;55.30
20487;DHT22;10402;49.012;8.370;2022-08-03T01:41:39;23.20;55.30
20487;DHT22;10402;49.012;8.370;2022-08-03T01:44:08;23.20;55.30
20487;DHT22;10402;49.012;8.370;2022-08-03T01:46:36;23.20;55.50
20487;DHT22;10402;49.012;8.370;2022-08-03T01:49:06;23.10;55.50
20487;DHT22;10402;49.012;8.370;2022-08-03T01:51:35;23.10;55.60
20487;DHT22;10402;49.012;8.370;2022-08-03T01:54:01;23.10;55.60
20487;DHT22;10402;49.012;8.370;2022-08-03T01:56:29;23.10;55.60
20487;DHT22;10402;49.012;8.370;2022-08-03T01:58:57;23.10;55.60
20487;DHT22;10402;49.012;8.370;2022-08-03T02:01:25;23.00;55.60
20487;DHT22;10402;49.012;8.370;2022-08-03T02:03:51;23.10;55.70
20487;DHT22;10402;49.012;8.370;2022-08-03T02:06:19;23.00;55.70
20487;DHT22;10402;49.012;8.370;2022-08-03T02:08:46;22.90;55.70
20487;DHT22;10402;49.012;8.370;2022-08-03T02:11:12;22.90;55.90
20487;DHT22;10402;49.012;8.370;2022-08-03T02:13:38;22.70;56.00
20487;DHT22;10402;49.012;8.370;2022-08-03T02:16:05;22.70;56.10
20487;DHT22;10402;49.012;8.370;2022-08-03T02:18:31;22.70;56.10
20487;DHT22;10402;49.012;8.370;2022-08-03T02:21:02;22.80;56.10
20487;DHT22;10402;49.012;8.370;2022-08-03T02:23:29;22.80;56.00
20487;DHT22;10402;49.012;8.370;2022-08-03T02:25:57;22.90;56.00
20487;DHT22;10402;49.012;8.370;2022-08-03T02:28:36;22.80;56.00
20487;DHT22;10402;49.012;8.370;2022-08-03T02:31:04;22.70;56.00
20487;DHT22;10402;49.012;8.370;2022-08-03T02:33:35;22.70;56.20
20487;DHT22;10402;49.012;8.370;2022-08-03T02:36:02;22.70;56.30
20487;DHT22;10402;49.012;8.370;2022-08-03T02:38:32;22.60;56.30
20487;DHT22;10402;49.012;8.370;2022-08-03T02:41:00;22.60;56.40
20487;DHT22;10402;49.012;8.370;2022-08-03T02:43:29;22.50;56.50
20487;DHT22;10402;49.012;8.370;2022-08-03T02:45:55;22.50;56.70
20487;DHT22;10402;49.012;8.370;2022-08-03T02:48:24;22.40;56.70
20487;DHT22;10402;49.012;8.370;2022-08-03T02:50:52;22.40;56.90
20487;DHT22;10402;49.012;8.370;2022-08-03T02:53:20;22.30;57.00
20487;DHT22;10402;49.012;8.370;2022-08-03T02:55:47;22.20;57.10
20487;DHT22;10402;49.012;8.370;2022-08-03T02:58:17;22.10;57.10
20487;DHT22;10402;49.012;8.370;2022-08-03T03:00:44;22.10;57.20
20487;DHT22;10402;49.012;8.370;2022-08-03T03:03:10;22.10;57.20
20487;DHT22;10402;49.012;8.370;2022-08-03T03:05:36;22.10;57.30
20487;DHT22;10402;49.012;8.370;2022-08-03T03:08:03;22.10;57.40
20487;DHT22;10402;49.012;8.370;2022-08-03T03:10:29;22.00;57.30
20487;DHT22;10402;49.012;8.370;2022-08-03T03:12:56;21.90;57.30
20487;DHT22;10402;49.012;8.370;2022-08-03T03:15:27;21.90;57.50
20487;DHT22;10402;49.012;8.370;2022-08-03T03:17:53;21.90;57.60
20487;DHT22;10402;49.012;8.370;2022-08-03T03:20:20;21.90;57.60
20487;DHT22;10402;49.012;8.370;2022-08-03T03:22:48;21.90;57.60
20487;DHT22;10402;49.012;8.370;2022-08-03T03:25:14;21.90;57.70
20487;DHT22;10402;49.012;8.370;2022-08-03T03:27:40;21.90;57.70
20487;DHT22;10402;49.012;8.370;2022-08-03T03:30:06;21.80;57.70
20487;DHT22;10402;49.012;8.370;2022-08-03T03:32:32;21.90;57.80
20487;DHT22;10402;49.012;8.370;2022-08-03T03:34:58;21.80;57.80
20487;DHT22;10402;49.012;8.370;2022-08-03T03:37:25;21.80;57.70
20487;DHT22;10402;49.012;8.370;2022-08-03T03:39:55;21.80;57.80
20487;DHT22;10402;49.012;8.370;2022-08-03T03:42:21;21.80;57.80
20487;DHT22;10402;49.012;8.370;2022-08-03T03:44:47;21.80;57.80
20487;DHT22;10402;49.012;8.370;2022-08-03T03:47:12;21.80;57.90
20487;DHT22;10402;49.012;8.370;2022-08-03T03:49:39;21.80;58.00
20487;DHT22;10402;49.012;8.370;2022-08-03T03:52:05;21.80;57.90
20487;DHT22;10402;49.012;8.370;2022-08-03T03:54:44;21.80;58.00
20487;DHT22;10402;49.012;8.370;2022-08-03T03:57:10;21.70;58.00
20487;DHT22;10402;49.012;8.370;2022-08-03T03:59:40;21.70;58.10
20487;DHT22;10402;49.012;8.370;2022-08-03T04:02:06;21.70;58.20
20487;DHT22;10402;49.012;8.370;2022-08-03T04:04:33;21.60;58.30
20487;DHT22;10402;49.012;8.370;2022-08-03T04:07:18;21.60;58.50
20487;DHT22;10402;49.012;8.370;2022-08-03T04:10:07;21.50;58.50
20487;DHT22;10402;49.012;8.370;2022-08-03T04:12:55;21.60;58.40
20487;DHT22;10402;49.012;8.370;2022-08-03T04:15:22;21.60;58.40
20487;DHT22;10402;49.012;8.370;2022-08-03T04:17:50;21.50;58.40
20487;DHT22;10402;49.012;8.370;2022-08-03T04:20:19;21.50;58.40
20487;DHT22;10402;49.012;8.370;2022-08-03T04:22:48;21.60;58.50
20487;DHT22;10402;49.012;8.370;2022-08-03T04:25:15;21.50;58.50
20487;DHT22;10402;49.012;8.370;2022-08-03T04:27:45;21.50;58.50
20487;DHT22;10402;49.012;8.370;2022-08-03T04:30:12;21.50;58.50
20487;DHT22;10402;49.012;8.370;2022-08-03T04:32:38;21.50;58.50
20487;DHT22;10402;49.012;8.370;2022-08-03T04:35:05;21.50;58.60
20487;DHT22;10402;49.012;8.370;2022-08-03T04:37:40;21.40;58.70
20487;DHT22;10402;49.012;8.370;2022-08-03T04:40:14;21.40;58.80
20487;DHT22;10402;49.012;8.370;2022-08-03T04:42:42;21.40;58.80
20487;DHT22;10402;49.012;8.370;2022-08-03T04:45:11;21.40;58.90
20487;DHT22;10402;49.012;8.370;2022-08-03T04:47:37;21.40;58.90
20487;DHT22;10402;49.012;8.370;2022-08-03T04:50:04;21.40;58.90
20487;DHT22;10402;49.012;8.370;2022-08-03T04:52:30;21.40;58.90
20487;DHT22;10402;49.012;8.370;2022-08-03T04:54:56;21.40;58.90
20487;DHT22;10402;49.012;8.370;2022-08-03T04:57:22;21.40;59.00
20487;DHT22;10402;49.012;8.370;2022-08-03T04:59:48;21.40;59.00
20487;DHT22;10402;49.012;8.370;2022-08-03T05:02:17;21.40;59.00
20487;DHT22;10402;49.012;8.370;2022-08-03T05:04:42;21.40;59.00
20487;DHT22;10402;49.012;8.370;2022-08-03T05:07:11;21.50;59.00
20487;DHT22;10402;49.012;8.370;2022-08-03T05:09:37;21.50;58.80
20487;DHT22;10402;49.012;8.370;2022-08-03T05:12:03;21.60;58.80
20487;DHT22;10402;49.012;8.370;2022-08-03T05:14:29;21.60;58.70
20487;DHT22;10402;49.012;8.370;2022-08-03T05:16:54;21.60;58.80
20487;DHT22;10402;49.012;8.370;2022-08-03T05:19:20;21.60;58.70
20487;DHT22;10402;49.012;8.370;2022-08-03T05:21:45;21.70;58.70
20487;DHT22;10402;49.012;8.370;2022-08-03T05:24:11;21.70;58.70
20487;DHT22;10402;49.012;8.370;2022-08-03T05:26:36;21.70;58.70
20487;DHT22;10402;49.012;8.370;2022-08-03T05:29:02;21.80;58.70
20487;DHT22;10402;49.012;8.370;2022-08-03T05:31:28;21.90;58.70
20487;DHT22;10402;49.012;8.370;2022-08-03T05:33:53;21.90;58.60
20487;DHT22;10402;49.012;8.370;2022-08-03T05:36:19;21.90;58.50
20487;DHT22;10402;49.012;8.370;2022-08-03T05:38:44;22.00;58.60
20487;DHT22;10402;49.012;8.370;2022-08-03T05:41:10;22.00;58.50
20487;DHT22;10402;49.012;8.370;2022-08-03T05:43:35;22.10;58.40
20487;DHT22;10402;49.012;8.370;2022-08-03T05:46:01;22.10;58.30
20487;DHT22;10402;49.012;8.370;2022-08-03T05:48:27;22.20;58.30
20487;DHT22;10402;49.012;8.370;2022-08-03T05:50:53;22.20;58.20
20487;DHT22;10402;49.012;8.370;2022-08-03T05:53:18;22.20;58.10
20487;DHT22;10402;49.012;8.370;2022-08-03T05:55:44;22.30;58.10
20487;DHT22;10402;49.012;8.370;2022-08-03T05:58:10;22.30;58.00
20487;DHT22;10402;49.012;8.370;2022-08-03T06:00:35;22.40;58.00
20487;DHT22;10402;49.012;8.370;2022-08-03T06:03:01;22.50;57.90
20487;DHT22;10402;49.012;8.370;2022-08-03T06:05:27;22.60;57.80
20487;DHT22;10402;49.012;8.370;2022-08-03T06:07:53;22.60;57.80
20487;DHT22;10402;49.012;8.370;2022-08-03T06:10:19;22.80;57.70
20487;DHT22;10402;49.012;8.370;2022-08-03T06:12:44;22.80;57.50
20487;DHT22;10402;49.012;8.370;2022-08-03T06:15:13;22.80;57.40
20487;DHT22;10402;49.012;8.370;2022-08-03T06:17:46;22.90;57.40
20487;DHT22;10402;49.012;8.370;2022-08-03T06:20:12;22.90;57.30
20487;DHT22;10402;49.012;8.370;2022-08-03T06:22:38;23.00;57.20
20487;DHT22;10402;49.012;8.370;2022-08-03T06:25:04;23.10;57.10
20487;DHT22;10402;49.012;8.370;2022-08-03T06:27:30;23.20;57.00
20487;DHT22;10402;49.012;8.370;2022-08-03T06:29:56;23.30;56.80
20487;DHT22;10402;49.012;8.370;2022-08-03T06:32:21;23.30;56.70
20487;DHT22;10402;49.012;8.370;2022-08-03T06:34:47;23.30;56.50
20487;DHT22;10402;49.012;8.370;2022-08-03T06:37:13;23.40;56.50
20487;DHT22;10402;49.012;8.370;2022-08-03T06:39:38;23.50;56.40
20487;DHT22;10402;49.012;8.370;2022-08-03T06:42:04;23.50;56.30
20487;DHT22;10402;49.012;8.370;2022-08-03T06:44:30;23.50;56.10
20487;DHT22;10402;49.012;8.370;2022-08-03T06:46:55;23.60;56.20
20487;DHT22;10402;49.012;8.370;2022-08-03T06:49:21;23.70;56.20
20487;DHT22;10402;49.012;8.370;2022-08-03T06:51:47;23.70;56.00
20487;DHT22;10402;49.012;8.370;2022-08-03T06:54:12;23.70;55.90
20487;DHT22;10402;49.012;8.370;2022-08-03T06:56:38;23.80;55.90
20487;DHT22;10402;49.012;8.370;2022-08-03T06:59:03;23.90;55.80
20487;DHT22;10402;49.012;8.370;2022-08-03T07:01:29;23.90;55.70
20487;DHT22;10402;49.012;8.370;2022-08-03T07:03:55;24.00;55.70
20487;DHT22;10402;49.012;8.370;2022-08-03T07:06:20;24.00;55.50
20487;DHT22;10402;49.012;8.370;2022-08-03T07:08:46;24.10;55.40
20487;DHT22;10402;49.012;8.370;2022-08-03T07:11:12;24.20;55.40
20487;DHT22;10402;49.012;8.370;2022-08-03T07:13:38;24.30;55.30
20487;DHT22;10402;49.012;8.370;2022-08-03T07:16:05;24.30;55.10
20487;DHT22;10402;49.012;8.370;2022-08-03T07:18:31;24.40;55.00
20487;DHT22;10402;49.012;8.370;2022-08-03T07:20:57;24.40;54.80
20487;DHT22;10402;49.012;8.370;2022-08-03T07:23:22;24.50;54.80
20487;DHT22;10402;49.012;8.370;2022-08-03T07:25:48;24.50;54.70
20487;DHT22;10402;49.012;8.370;2022-08-03T07:28:15;24.60;54.60
20487;DHT22;10402;49.012;8.370;2022-08-03T07:30:40;24.60;55.20
20487;DHT22;10402;49.012;8.370;2022-08-03T07:33:06;24.70;54.70
20487;DHT22;10402;49.012;8.370;2022-08-03T07:35:31;24.80;54.70
20487;DHT22;10402;49.012;8.370;2022-08-03T07:37:57;24.80;54.40
20487;DHT22;10402;49.012;8.370;2022-08-03T07:40:22;24.80;54.30
20487;DHT22;10402;49.012;8.370;2022-08-03T07:42:48;24.90;54.30
20487;DHT22;10402;49.012;8.370;2022-08-03T07:45:13;24.90;54.20
20487;DHT22;10402;49.012;8.370;2022-08-03T07:47:39;25.00;54.20
20487;DHT22;10402;49.012;8.370;2022-08-03T07:50:05;25.00;54.00
20487;DHT22;10402;49.012;8.370;2022-08-03T07:52:31;25.10;54.00
20487;DHT22;10402;49.012;8.370;2022-08-03T07:55:19;25.10;53.90
20487;DHT22;10402;49.012;8.370;2022-08-03T07:57:45;25.20;53.70
20487;DHT22;10402;49.012;8.370;2022-08-03T08:00:16;25.30;53.70
20487;DHT22;10402;49.012;8.370;2022-08-03T08:02:43;25.40;53.60
20487;DHT22;10402;49.012;8.370;2022-08-03T08:05:09;25.50;53.50
20487;DHT22;10402;49.012;8.370;2022-08-03T08:07:36;25.60;53.40
20487;DHT22;10402;49.012;8.370;2022-08-03T08:10:04;25.60;53.10
20487;DHT22;10402;49.012;8.370;2022-08-03T08:12:30;25.70;53.00
20487;DHT22;10402;49.012;8.370;2022-08-03T08:14:55;25.80;52.90
20487;DHT22;10402;49.012;8.370;2022-08-03T08:17:21;25.80;52.90
20487;DHT22;10402;49.012;8.370;2022-08-03T08:19:46;25.90;52.80
20487;DHT22;10402;49.012;8.370;2022-08-03T08:22:12;25.90;52.70
20487;DHT22;10402;49.012;8.370;2022-08-03T08:24:38;26.00;52.70
20487;DHT22;10402;49.012;8.370;2022-08-03T08:27:03;26.00;52.50
20487;DHT22;10402;49.012;8.370;2022-08-03T08:29:29;26.10;52.40
20487;DHT22;10402;49.012;8.370;2022-08-03T08:31:54;26.20;52.30
20487;DHT22;10402;49.012;8.370;2022-08-03T08:34:20;26.30;52.30
20487;DHT22;10402;49.012;8.370;2022-08-03T08:36:45;26.30;52.10
20487;DHT22;10402;49.012;8.370;2022-08-03T08:39:11;26.40;52.00
20487;DHT22;10402;49.012;8.370;2022-08-03T08:41:36;26.40;51.90
20487;DHT22;10402;49.012;8.370;2022-08-03T08:44:02;26.50;51.90
20487;DHT22;10402;49.012;8.370;2022-08-03T08:46:31;26.60;51.80
20487;DHT22;10402;49.012;8.370;2022-08-03T08:48:58;26.70;51.70
20487;DHT22;10402;49.012;8.370;2022-08-03T08:51:28;26.70;51.60
20487;DHT22;10402;49.012;8.370;2022-08-03T08:53:55;26.80;51.60
20487;DHT22;10402;49.012;8.370;2022-08-03T08:56:24;26.90;51.60
20487;DHT22;10402;49.012;8.370;2022-08-03T08:58:52;26.90;51.50
20487;DHT22;10402;49.012;8.370;2022-08-03T09:01:19;26.90;51.40
20487;DHT22;10402;49.012;8.370;2022-08-03T09:03:46;27.00;51.40
20487;DHT22;10402;49.012;8.370;2022-08-03T09:06:11;27.10;51.30
20487;DHT22;10402;49.012;8.370;2022-08-03T09:08:37;27.20;51.30
20487;DHT22;10402;49.012;8.370;2022-08-03T09:11:02;27.20;51.30
20487;DHT22;10402;49.012;8.370;2022-08-03T09:13:28;27.30;51.20
20487;DHT22;10402;49.012;8.370;2022-08-03T09:16:14;27.40;51.10
20487;DHT22;10402;49.012;8.370;2022-08-03T09:18:44;27.40;50.90
20487;DHT22;10402;49.012;8.370;2022-08-03T09:23:49;27.50;50.70
20487;DHT22;10402;49.012;8.370;2022-08-03T09:26:26;27.60;50.80
20487;DHT22;10402;49.012;8.370;2022-08-03T09:29:04;27.60;50.80
20487;DHT22;10402;49.012;8.370;2022-08-03T09:31:42;27.80;50.90
20487;DHT22;10402;49.012;8.370;2022-08-03T09:34:09;27.90;50.80
20487;DHT22;10402;49.012;8.370;2022-08-03T09:36:46;27.90;50.60
20487;DHT22;10402;49.012;8.370;2022-08-03T09:39:23;28.00;50.60
20487;DHT22;10402;49.012;8.370;2022-08-03T09:42:11;28.10;50.50
20487;DHT22;10402;49.012;8.370;2022-08-03T09:44:41;28.20;50.40
20487;DHT22;10402;49.012;8.370;2022-08-03T09:47:08;28.20;50.30
20487;DHT22;10402;49.012;8.370;2022-08-03T09:49:35;28.40;50.40
20487;DHT22;10402;49.012;8.370;2022-08-03T09:52:10;28.40;50.30
20487;DHT22;10402;49.012;8.370;2022-08-03T09:54:36;28.40;50.20
20487;DHT22;10402;49.012;8.370;2022-08-03T09:57:02;28.50;50.20
20487;DHT22;10402;49.012;8.370;2022-08-03T09:59:29;28.50;50.20
20487;DHT22;10402;49.012;8.370;2022-08-03T10:01:57;28.50;50.10
20487;DHT22;10402;49.012;8.370;2022-08-03T10:04:24;28.60;50.10
20487;DHT22;10402;49.012;8.370;2022-08-03T10:07:09;28.60;50.00
20487;DHT22;10402;49.012;8.370;2022-08-03T10:09:36;28.70;49.90
20487;DHT22;10402;49.012;8.370;2022-08-03T10:12:12;28.80;49.80
20487;DHT22;10402;49.012;8.370;2022-08-03T10:14:39;28.80;49.80
20487;DHT22;10402;49.012;8.370;2022-08-03T10:17:06;28.90;49.70
20487;DHT22;10402;49.012;8.370;2022-08-03T10:19:33;29.00;49.60
20487;DHT22;10402;49.012;8.370;2022-08-03T10:22:06;29.00;49.40
20487;DHT22;10402;49.012;8.370;2022-08-03T10:24:34;29.10;49.50
20487;DHT22;10402;49.012;8.370;2022-08-03T10:27:05;29.10;49.40
20487;DHT22;10402;49.012;8.370;2022-08-03T10:29:37;29.10;49.30
20487;DHT22;10402;49.012;8.370;2022-08-03T10:32:08;29.10;49.30
20487;DHT22;10402;49.012;8.370;2022-08-03T10:34:37;29.20;49.30
20487;DHT22;10402;49.012;8.370;2022-08-03T10:37:09;29.20;49.20
20487;DHT22;10402;49.012;8.370;2022-08-03T10:39:35;29.30;49.10
20487;DHT22;10402;49.012;8.370;2022-08-03T10:42:02;29.30;49.00
20487;DHT22;10402;49.012;8.370;2022-08-03T10:44:32;29.40;48.90
20487;DHT22;10402;49.012;8.370;2022-08-03T10:47:01;29.40;48.80
20487;DHT22;10402;49.012;8.370;2022-08-03T10:49:28;29.50;48.80
20487;DHT22;10402;49.012;8.370;2022-08-03T10:51:54;29.50;48.70
20487;DHT22;10402;49.012;8.370;2022-08-03T10:54:38;29.50;48.60
20487;DHT22;10402;49.012;8.370;2022-08-03T10:57:43;29.60;48.60
20487;DHT22;10402;49.012;8.370;2022-08-03T11:00:10;29.70;48.40
20487;DHT22;10402;49.012;8.370;2022-08-03T11:05:39;29.70;48.20
20487;DHT22;10402;49.012;8.370;2022-08-03T11:08:18;29.70;48.10
20487;DHT22;10402;49.012;8.370;2022-08-03T11:10:45;29.70;48.00
20487;DHT22;10402;49.012;8.370;2022-08-03T11:13:14;29.80;47.90
20487;DHT22;10402;49.012;8.370;2022-08-03T11:15:41;29.80;47.90
20487;DHT22;10402;49.012;8.370;2022-08-03T11:18:09;29.90;47.80
20487;DHT22;10402;49.012;8.370;2022-08-03T11:20:53;29.90;47.80
20487;DHT22;10402;49.012;8.370;2022-08-03T11:23:44;29.90;47.80
20487;DHT22;10402;49.012;8.370;2022-08-03T11:26:17;29.90;47.70
20487;DHT22;10402;49.012;8.370;2022-08-03T11:28:47;30.00;47.70
20487;DHT22;10402;49.012;8.370;2022-08-03T11:34:05;30.00;47.50
20487;DHT22;10402;49.012;8.370;2022-08-03T11:39:45;30.00;47.40
20487;DHT22;10402;49.012;8.370;2022-08-03T11:44:59;30.20;47.40
20487;DHT22;10402;49.012;8.370;2022-08-03T11:47:26;30.20;47.30
20487;DHT22;10402;49.012;8.370;2022-08-03T11:49:57;30.20;47.30
20487;DHT22;10402;49.012;8.370;2022-08-03T11:52:25;30.20;47.20
20487;DHT22;10402;49.012;8.370;2022-08-03T11:54:52;30.30;47.10
20487;DHT22;10402;49.012;8.370;2022-08-03T11:57:32;30.30;47.00
20487;DHT22;10402;49.012;8.370;2022-08-03T11:59:58;30.30;47.00
20487;DHT22;10402;49.012;8.370;2022-08-03T12:02:23;30.40;47.00
20487;DHT22;10402;49.012;8.370;2022-08-03T12:04:50;30.40;47.30
20487;DHT22;10402;49.012;8.370;2022-08-03T12:07:16;30.50;46.60
20487;DHT22;10402;49.012;8.370;2022-08-03T12:09:43;30.50;46.60
20487;DHT22;10402;49.012;8.370;2022-08-03T12:12:08;30.50;46.60
20487;DHT22;10402;49.012;8.370;2022-08-03T12:14:34;30.50;46.50
20487;DHT22;10402;49.012;8.370;2022-08-03T12:17:00;30.60;46.40
20487;DHT22;10402;49.012;8.370;2022-08-03T12:19:25;30.60;47.00
20487;DHT22;10402;49.012;8.370;2022-08-03T12:21:51;30.60;46.30
20487;DHT22;10402;49.012;8.370;2022-08-03T12:24:17;30.70;46.20
20487;DHT22;10402;49.012;8.370;2022-08-03T12:26:47;30.70;46.10
20487;DHT22;10402;49.012;8.370;2022-08-03T12:29:17;30.80;46.00
20487;DHT22;10402;49.012;8.370;2022-08-03T12:31:43;30.80;46.00
20487;DHT22;10402;49.012;8.370;2022-08-03T12:34:08;30.90;45.90
20487;DHT22;10402;49.012;8.370;2022-08-03T12:36:35;30.90;45.80
20487;DHT22;10402;49.012;8.370;2022-08-03T12:39:07;30.90;45.70
20487;DHT22;10402;49.012;8.370;2022-08-03T12:41:35;30.90;45.70
20487;DHT22;10402;49.012;8.370;2022-08-03T12:44:02;30.90;45.70
20487;DHT22;10402;49.012;8.370;2022-08-03T12:46:30;30.90;45.60
20487;DHT22;10402;49.012;8.370;2022-08-03T12:49:11;30.90;45.60
20487;DHT22;10402;49.012;8.370;2022-08-03T12:59:33;31.00;45.30
20487;DHT22;10402;49.012;8.370;2022-08-03T13:01:59;31.10;45.30
20487;DHT22;10402;49.012;8.370;2022-08-03T13:04:29;31.20;45.20
20487;DHT22;10402;49.012;8.370;2022-08-03T13:06:59;31.20;45.20
20487;DHT22;10402;49.012;8.370;2022-08-03T13:09:26;31.20;45.10
20487;DHT22;10402;49.012;8.370;2022-08-03T13:12:06;31.30;45.70
20487;DHT22;10402;49.012;8.370;2022-08-03T13:14:32;31.30;44.90
20487;DHT22;10402;49.012;8.370;2022-08-03T13:16:58;31.40;44.70
20487;DHT22;10402;49.012;8.370;2022-08-03T13:19:24;31.30;44.70
20487;DHT22;10402;49.012;8.370;2022-08-03T13:21:49;31.40;44.70
20487;DHT22;10402;49.012;8.370;2022-08-03T13:24:15;31.50;44.60
20487;DHT22;10402;49.012;8.370;2022-08-03T13:26:40;31.50;44.50
20487;DHT22;10402;49.012;8.370;2022-08-03T13:29:06;31.60;44.40
20487;DHT22;10402;49.012;8.370;2022-08-03T13:31:31;31.60;44.30
20487;DHT22;10402;49.012;8.370;2022-08-03T13:33:57;31.60;44.00
20487;DHT22;10402;49.012;8.370;2022-08-03T13:36:22;31.70;44.00
20487;DHT22;10402;49.012;8.370;2022-08-03T13:38:49;31.70;44.10
20487;DHT22;10402;49.012;8.370;2022-08-03T13:41:15;31.70;44.00
20487;DHT22;10402;49.012;8.370;2022-08-03T13:43:40;31.70;44.10
20487;DHT22;10402;49.012;8.370;2022-08-03T13:46:06;31.70;44.00
20487;DHT22;10402;49.012;8.370;2022-08-03T13:48:31;31.70;44.00
20487;DHT22;10402;49.012;8.370;2022-08-03T13:50:57;31.70;44.00
20487;DHT22;10402;49.012;8.370;2022-08-03T13:53:23;31.70;44.00
20487;DHT22;10402;49.012;8.370;2022-08-03T13:55:48;31.80;44.00
20487;DHT22;10402;49.012;8.370;2022-08-03T13:58:14;31.80;43.80
20487;DHT22;10402;49.012;8.370;2022-08-03T14:00:39;31.80;43.80
20487;DHT22;10402;49.012;8.370;2022-08-03T14:03:05;31.80;43.70
20487;DHT22;10402;49.012;8.370;2022-08-03T14:05:31;31.90;43.80
20487;DHT22;10402;49.012;8.370;2022-08-03T14:07:57;31.90;43.60
20487;DHT22;10402;49.012;8.370;2022-08-03T14:10:22;31.90;43.60
20487;DHT22;10402;49.012;8.370;2022-08-03T14:12:48;31.90;43.60
20487;DHT22;10402;49.012;8.370;2022-08-03T14:15:13;31.90;43.60
20487;DHT22;10402;49.012;8.370;2022-08-03T14:17:39;32.00;43.50
20487;DHT22;10402;49.012;8.370;2022-08-03T14:20:06;32.00;43.30
20487;DHT22;10402;49.012;8.370;2022-08-03T14:22:32;32.10;43.40
20487;DHT22;10402;49.012;8.370;2022-08-03T14:24:58;32.10;43.30
20487;DHT22;10402;49.012;8.370;2022-08-03T14:27:24;32.10;43.30
20487;DHT22;10402;49.012;8.370;2022-08-03T14:29:49;32.10;43.30
20487;DHT22;10402;49.012;8.370;2022-08-03T14:32:15;32.10;43.20
20487;DHT22;10402;49.012;8.370;2022-08-03T14:34:40;32.10;43.20
20487;DHT22;10402;49.012;8.370;2022-08-03T14:37:06;32.10;43.20
20487;DHT22;10402;49.012;8.370;2022-08-03T14:39:32;32.10;43.20
20487;DHT22;10402;49.012;8.370;2022-08-03T14:41:57;32.10;43.10
20487;DHT22;10402;49.012;8.370;2022-08-03T14:44:23;32.20;43.10
20487;DHT22;10402;49.012;8.370;2022-08-03T14:46:48;32.20;43.10
20487;DHT22;10402;49.012;8.370;2022-08-03T14:49:14;32.30;43.00
20487;DHT22;10402;49.012;8.370;2022-08-03T14:51:39;32.30;42.90
20487;DHT22;10402;49.012;8.370;2022-08-03T14:54:05;32.30;42.90
20487;DHT22;10402;49.012;8.370;2022-08-03T14:56:30;32.30;42.90
20487;DHT22;10402;49.012;8.370;2022-08-03T14:58:56;32.30;43.50
20487;DHT22;10402;49.012;8.370;2022-08-03T15:01:21;32.30;42.60
20487;DHT22;10402;49.012;8.370;2022-08-03T15:03:47;32.30;42.60
20487;DHT22;10402;49.012;8.370;2022-08-03T15:06:13;32.30;42.60
20487;DHT22;10402;49.012;8.370;2022-08-03T15:08:38;32.30;42.60
20487;DHT22;10402;49.012;8.370;2022-08-03T15:11:04;32.40;42.60
20487;DHT22;10402;49.012;8.370;2022-08-03T15:13:29;32.40;42.60
20487;DHT22;10402;49.012;8.370;2022-08-03T15:15:55;32.40;43.20
20487;DHT22;10402;49.012;8.370;2022-08-03T15:18:22;32.50;42.30
20487;DHT22;10402;49.012;8.370;2022-08-03T15:20:47;32.50;42.20
20487;DHT22;10402;49.012;8.370;2022-08-03T15:23:15;32.50;42.10
20487;DHT22;10402;49.012;8.370;2022-08-03T15:25:42;32.50;42.10
20487;DHT22;10402;49.012;8.370;2022-08-03T15:28:08;32.50;42.20
20487;DHT22;10402;49.012;8.370;2022-08-03T15:30:34;32.50;42.20
20487;DHT22;10402;49.012;8.370;2022-08-03T15:33:01;32.50;42.30
20487;DHT22;10402;49.012;8.370;2022-08-03T15:35:27;32.50;42.30
20487;DHT22;10402;49.012;8.370;2022-08-03T15:37:53;32.50;42.20
20487;DHT22;10402;49.012;8.370;2022-08-03T15:40:18;32.50;42.20
20487;DHT22;10402;49.012;8.370;2022-08-03T15:42:44;32.50;42.20
20487;DHT22;10402;49.012;8.370;2022-08-03T15:45:10;32.50;42.30
20487;DHT22;10402;49.012;8.370;2022-08-03T15:47:35;32.50;42.20
20487;DHT22;10402;49.012;8.370;2022-08-03T15:50:01;32.50;42.10
20487;DHT22;10402;49.012;8.370;2022-08-03T15:52:26;32.50;42.00
20487;DHT22;10402;49.012;8.370;2022-08-03T15:54:52;32.50;42.00
20487;DHT22;10402;49.012;8.370;2022-08-03T15:57:18;32.50;42.10
20487;DHT22;10402;49.012;8.370;2022-08-03T15:59:43;32.50;42.10
20487;DHT22;10402;49.012;8.370;2022-08-03T16:02:09;32.60;42.10
20487;DHT22;10402;49.012;8.370;2022-08-03T16:04:34;32.60;42.00